KMHE/MHE METAR and TAF weather

Enter ICAO airport designator
Station Type Date Time Source
KMHE METAR 2020/04/06 11:05 UTC NOAA

KMHE 061105Z AUTO 18011KT 7SM BKN021 08/04 A2977 RMK AO2 T00830044


Station Type Date Time Source
KMHE Decoded METAR 2020/04/06 11:05 UTC NOAA

MITCHELL MUNICIPAL AIRPORT, SD, United States (KMHE) 43-46N 98-02W
Apr 06, 2020 - 07:05 AM EDT / 2020.04.06 1105 UTC
Wind: from the S (180 degrees) at 13 MPH (11 KT):0
Visibility: 7 mile(s):0
Sky conditions: mostly cloudy
Temperature: 46.9 F (8.3 C)
Dew Point: 39.9 F (4.4 C)
Relative Humidity: 76%
Pressure (altimeter): 29.77 in. Hg (1008 hPa)
ob: KMHE 061105Z AUTO 18011KT 7SM BKN021 08/04 A2977 RMK AO2 T00830044
cycle: 11

Station Type Date Time Source
KMHE TAF UTC NOAA

Error!

Example: see airport list